sensor_id;sensor_type;location;lat;lon;timestamp;P1;P2;P0
45312;PMS7003;31050;51.540;5.852;2023-02-04T00:00:05;13.93;5.35;2.19
45312;PMS7003;31050;51.540;5.852;2023-02-04T00:00:05;13.93;5.35;2.19
45312;PMS7003;31050;51.540;5.852;2023-02-04T00:13:24;33.62;6.11;2.19
45312;PMS7003;31050;51.540;5.852;2023-02-04T00:26:44;8.05;6.11;2.08
45312;PMS7003;31050;51.540;5.852;2023-02-04T00:40:04;1.92;5.02;2.19
45312;PMS7003;31050;51.540;5.852;2023-02-04T00:53:23;3.48;6.44;2.19
45312;PMS7003;31050;51.540;5.852;2023-02-04T01:06:43;30.01;5.13;2.08
45312;PMS7003;31050;51.540;5.852;2023-02-04T01:20:02;13.69;5.57;2.19
45312;PMS7003;31050;51.540;5.852;2023-02-04T01:33:22;25.09;6.22;2.3
45312;PMS7003;31050;51.540;5.852;2023-02-04T01:46:42;13.09;6.55;2.62
45312;PMS7003;31050;51.540;5.852;2023-02-04T02:00:01;6.37;7.64;2.62
45312;PMS7003;31050;51.540;5.852;2023-02-04T02:13:21;15.37;6.33;2.84
45312;PMS7003;31050;51.540;5.852;2023-02-04T02:26:40;2.64;5.68;2.84
45312;PMS7003;31050;51.540;5.852;2023-02-04T02:40:00;23.89;6.22;3.17
45312;PMS7003;31050;51.540;5.852;2023-02-04T02:53:20;18.13;6.22;3.28
45312;PMS7003;31050;51.540;5.852;2023-02-04T03:06:39;12.25;7.97;3.39
45312;PMS7003;31050;51.540;5.852;2023-02-04T03:19:59;20.77;8.51;4.37
45312;PMS7003;31050;51.540;5.852;2023-02-04T03:33:19;12.61;9.06;4.04
45312;PMS7003;31050;51.540;5.852;2023-02-04T03:46:38;11.65;8.29;4.37
45312;PMS7003;31050;51.540;5.852;2023-02-04T03:59:58;9.13;8.51;5.02
45312;PMS7003;31050;51.540;5.852;2023-02-04T04:13:18;9.85;7.97;4.7
45312;PMS7003;31050;51.540;5.852;2023-02-04T04:26:37;7.69;9.17;5.35
45312;PMS7003;31050;51.540;5.852;2023-02-04T04:39:57;6.25;8.95;5.24
45312;PMS7003;31050;51.540;5.852;2023-02-04T04:53:16;8.17;7.97;5.35
45312;PMS7003;31050;51.540;5.852;2023-02-04T05:06:36;11.17;9.49;5.24
45312;PMS7003;31050;51.540;5.852;2023-02-04T05:19:56;20.17;10.26;5.24
45312;PMS7003;31050;51.540;5.852;2023-02-04T05:33:15;11.77;11.56;5.35
45312;PMS7003;31050;51.540;5.852;2023-02-04T05:46:35;5.65;8.4;5.24
45312;PMS7003;31050;51.540;5.852;2023-02-04T05:59:54;10.21;8.95;5.68
45312;PMS7003;31050;51.540;5.852;2023-02-04T06:13:14;15.49;9.6;5.79
45312;PMS7003;31050;51.540;5.852;2023-02-04T06:26:34;18.73;10.47;6.44
45312;PMS7003;31050;51.540;5.852;2023-02-04T06:39:53;7.81;10.36;6.66
45312;PMS7003;31050;51.540;5.852;2023-02-04T06:53:13;20.53;13.2;7.75
45312;PMS7003;31050;51.540;5.852;2023-02-04T07:06:32;14.05;15.49;9.49
45312;PMS7003;31050;51.540;5.852;2023-02-04T07:19:52;21.49;19.41;11.02
45312;PMS7003;31050;51.540;5.852;2023-02-04T07:33:12;31.81;17.56;11.35
45312;PMS7003;31050;51.540;5.852;2023-02-04T07:46:31;15.61;17.45;11.13
45312;PMS7003;31050;51.540;5.852;2023-02-04T07:59:51;17.65;15.16;11.13
45312;PMS7003;31050;51.540;5.852;2023-02-04T08:13:11;18.01;18.21;12.44
45312;PMS7003;31050;51.540;5.852;2023-02-04T08:26:30;38.06;15.92;11.35
45312;PMS7003;31050;51.540;5.852;2023-02-04T08:39:50;11.17;13.42;10.15
45312;PMS7003;31050;51.540;5.852;2023-02-04T08:53:09;18.73;15.27;11.13
45312;PMS7003;31050;51.540;5.852;2023-02-04T09:06:29;16.81;14.07;10.58
45312;PMS7003;31050;51.540;5.852;2023-02-04T09:19:49;14.53;13.53;10.8
45312;PMS7003;31050;51.540;5.852;2023-02-04T09:33:08;35.18;14.62;10.8
45312;PMS7003;31050;51.540;5.852;2023-02-04T09:46:28;15.49;14.4;10.26
45312;PMS7003;31050;51.540;5.852;2023-02-04T09:59:48;15.85;13.74;9.82
45312;PMS7003;31050;51.540;5.852;2023-02-04T10:13:07;15.37;13.74;9.38
45312;PMS7003;31050;51.540;5.852;2023-02-04T10:26:27;9.13;11.56;6.88
45312;PMS7003;31050;51.540;5.852;2023-02-04T10:39:46;8.05;10.58;6.77
45312;PMS7003;31050;51.540;5.852;2023-02-04T10:53:06;15.25;11.13;6.99
45312;PMS7003;31050;51.540;5.852;2023-02-04T11:06:26;6.97;9.6;6.33
45312;PMS7003;31050;51.540;5.852;2023-02-04T11:19:45;9.61;8.95;5.24
45312;PMS7003;31050;51.540;5.852;2023-02-04T11:33:05;22.21;9.17;5.79
45312;PMS7003;31050;51.540;5.852;2023-02-04T11:46:24;10.69;10.91;6.0
45312;PMS7003;31050;51.540;5.852;2023-02-04T11:59:44;10.81;9.71;6.11
45312;PMS7003;31050;51.540;5.852;2023-02-04T12:13:04;12.01;8.84;4.37
45312;PMS7003;31050;51.540;5.852;2023-02-04T12:26:23;13.93;9.27;5.46
45312;PMS7003;31050;51.540;5.852;2023-02-04T12:39:43;11.89;7.64;4.15
45312;PMS7003;31050;51.540;5.852;2023-02-04T12:53:03;6.97;9.6;5.46
45312;PMS7003;31050;51.540;5.852;2023-02-04T13:06:22;12.97;9.27;4.15
45312;PMS7003;31050;51.540;5.852;2023-02-04T13:19:42;9.49;9.49;5.24
45312;PMS7003;31050;51.540;5.852;2023-02-04T13:33:02;13.93;8.95;5.35
45312;PMS7003;31050;51.540;5.852;2023-02-04T13:46:21;14.41;8.62;5.57
45312;PMS7003;31050;51.540;5.852;2023-02-04T13:59:41;12.25;7.97;4.91
45312;PMS7003;31050;51.540;5.852;2023-02-04T14:13:00;4.93;6.44;3.5
45312;PMS7003;31050;51.540;5.852;2023-02-04T14:26:20;7.21;7.09;4.37
45312;PMS7003;31050;51.540;5.852;2023-02-04T14:39:40;5.29;8.08;4.26
45312;PMS7003;31050;51.540;5.852;2023-02-04T14:52:59;4.33;7.2;3.82
45312;PMS7003;31050;51.540;5.852;2023-02-04T15:06:19;5.89;6.99;4.04
45312;PMS7003;31050;51.540;5.852;2023-02-04T15:19:39;7.57;6.77;4.48
45312;PMS7003;31050;51.540;5.852;2023-02-04T15:32:58;4.45;7.31;4.15
45312;PMS7003;31050;51.540;5.852;2023-02-04T15:46:18;5.53;8.29;4.59
45312;PMS7003;31050;51.540;5.852;2023-02-04T15:59:37;4.21;7.09;4.7
45312;PMS7003;31050;51.540;5.852;2023-02-04T16:12:57;5.05;7.86;5.13
45312;PMS7003;31050;51.540;5.852;2023-02-04T16:26:17;11.53;8.18;4.15
45312;PMS7003;31050;51.540;5.852;2023-02-04T16:39:36;3.73;6.66;3.93
45312;PMS7003;31050;51.540;5.852;2023-02-04T16:52:56;13.33;6.0;3.71
45312;PMS7003;31050;51.540;5.852;2023-02-04T17:06:16;7.09;6.99;4.7
45312;PMS7003;31050;51.540;5.852;2023-02-04T17:19:35;5.65;8.4;5.13
45312;PMS7003;31050;51.540;5.852;2023-02-04T17:32:55;8.41;8.4;4.91
45312;PMS7003;31050;51.540;5.852;2023-02-04T17:46:15;3.6;6.55;4.15
45312;PMS7003;31050;51.540;5.852;2023-02-04T17:59:34;5.77;8.51;5.24
45312;PMS7003;31050;51.540;5.852;2023-02-04T18:12:54;10.45;8.18;5.35
45312;PMS7003;31050;51.540;5.852;2023-02-04T18:26:13;5.53;8.29;5.02
45312;PMS7003;31050;51.540;5.852;2023-02-04T18:39:33;13.81;7.31;4.48
45312;PMS7003;31050;51.540;5.852;2023-02-04T18:52:53;8.17;6.77;3.93
45312;PMS7003;31050;51.540;5.852;2023-02-04T19:06:12;5.77;8.51;4.91
45312;PMS7003;31050;51.540;5.852;2023-02-04T19:19:32;21.37;10.47;5.46
45312;PMS7003;31050;51.540;5.852;2023-02-04T19:32:52;21.25;9.17;5.13
45312;PMS7003;31050;51.540;5.852;2023-02-04T19:46:11;4.81;7.64;5.68
45312;PMS7003;31050;51.540;5.852;2023-02-04T19:59:31;6.85;9.49;6.44
45312;PMS7003;31050;51.540;5.852;2023-02-04T20:12:50;10.45;9.71;6.55
45312;PMS7003;31050;51.540;5.852;2023-02-04T20:26:10;5.53;8.29;5.46
45312;PMS7003;31050;51.540;5.852;2023-02-04T20:39:30;7.45;10.04;7.31
45312;PMS7003;31050;51.540;5.852;2023-02-04T20:52:49;7.57;10.15;7.09
45312;PMS7003;31050;51.540;5.852;2023-02-04T21:06:09;9.97;10.04;7.42
45312;PMS7003;31050;51.540;5.852;2023-02-04T21:19:28;10.57;10.26;7.64
45312;PMS7003;31050;51.540;5.852;2023-02-04T21:46:08;14.05;12.65;9.38
45312;PMS7003;31050;51.540;5.852;2023-02-04T21:59:27;14.65;14.62;10.04
45312;PMS7003;31050;51.540;5.852;2023-02-04T22:12:47;16.57;14.83;11.45
45312;PMS7003;31050;51.540;5.852;2023-02-04T22:26:07;15.61;14.94;10.58
45312;PMS7003;31050;51.540;5.852;2023-02-04T22:39:26;12.13;13.42;10.47
45312;PMS7003;31050;51.540;5.852;2023-02-04T22:52:46;10.69;12.98;10.26
45312;PMS7003;31050;51.540;5.852;2023-02-04T23:06:06;11.53;13.31;10.69
45312;PMS7003;31050;51.540;5.852;2023-02-04T23:19:25;17.53;15.16;11.56
45312;PMS7003;31050;51.540;5.852;2023-02-04T23:32:45;20.17;19.74;14.72
45312;PMS7003;31050;51.540;5.852;2023-02-04T23:46:04;20.29;20.39;16.25
45312;PMS7003;31050;51.540;5.852;2023-02-04T23:59:24;21.49;21.26;17.12
